Letzte 24h
Datum & Zeit Temp. Luft-
feuchte
Wind Nieder-
schlag
Luftdruck Tendenz
IN OUT IN OUT Richtung Min. Max.
2019.07.17 21:55 26.2 °C 21.6 °C 41% 59% O 79 ° 3 km/h 10 km/h 0.0 mm 1020.10 hPa langsam steigend
22:55 25.4 °C 20.3 °C 42% 63% ONO 77 ° 2 km/h 7 km/h 0.0 mm 1020.20 hPa langsam steigend
23:55 24.4 °C 18.8 °C 44% 67% S 180 ° 0 km/h 1 km/h 0.0 mm 1020.10 hPa langsam steigend
2019.07.18 00:55 23.6 °C 17.8 °C 46% 73% W 260 ° 0 km/h 4 km/h 0.0 mm 1019.90 hPa langsam fallend
01:55 22.9 °C 16.8 °C 48% 81% WNW 291 ° 5 km/h 16 km/h 0.0 mm 1020.70 hPa langsam steigend
02:55 22.3 °C 16.3 °C 49% 81% NW 306 ° 3 km/h 12 km/h 0.0 mm 1020.50 hPa langsam steigend
03:55 22.0 °C 15.0 °C 49% 83% SO 141 ° 0 km/h 7 km/h 0.0 mm 1020.20 hPa langsam steigend
04:55 21.5 °C 15.0 °C 50% 85% S 174 ° 1 km/h 5 km/h 0.0 mm 1019.90 hPa langsam fallend
05:55 21.1 °C 14.8 °C 50% 87% NW 307 ° 2 km/h 10 km/h 0.0 mm 1020.40 hPa langsam fallend
06:55 21.0 °C 17.1 °C 51% 82% WNW 295 ° 2 km/h 7 km/h 0.0 mm 1020.60 hPa langsam steigend
07:55 21.6 °C 20.7 °C 52% 67% O 96 ° 1 km/h 5 km/h 0.0 mm 1020.60 hPa langsam steigend
08:55 23.0 °C 20.8 °C 54% 64% NNW 342 ° 2 km/h 6 km/h 0.0 mm 1021.00 hPa langsam steigend
09:55 24.7 °C 21.9 °C 53% 61% N 352 ° 4 km/h 9 km/h 0.0 mm 1021.10 hPa langsam steigend
10:55 26.1 °C 23.7 °C 50% 56% NNO 22 ° 3 km/h 9 km/h 0.0 mm 1021.00 hPa langsam steigend
11:55 27.4 °C 25.0 °C 48% 52% NO 50 ° 5 km/h 11 km/h 0.0 mm 1020.80 hPa langsam fallend
12:55 28.8 °C 25.7 °C 45% 51% NNO 14 ° 4 km/h 10 km/h 0.0 mm 1020.80 hPa langsam fallend
13:55 29.2 °C 26.2 °C 43% 47% WNW 297 ° 4 km/h 11 km/h 0.0 mm 1020.70 hPa langsam fallend
14:55 29.4 °C 22.5 °C 43% 46% WSW 249 ° 8 km/h 24 km/h 0.0 mm 1021.00 hPa langsam steigend
15:55 28.6 °C 23.8 °C 42% 45% WNW 282 ° 6 km/h 11 km/h 0.0 mm 1020.30 hPa langsam fallend
16:55 28.5 °C 24.2 °C 42% 52% W 260 ° 5 km/h 13 km/h 0.0 mm 1020.30 hPa langsam fallend
17:55 28.2 °C 24.1 °C 42% 52% NNO 27 ° 1 km/h 6 km/h 0.0 mm 1020.10 hPa langsam fallend
18:55 27.7 °C 26.0 °C 41% 41% O 90 ° 1 km/h 5 km/h 0.0 mm 1020.20 hPa gleichbleibend
19:55 27.3 °C 26.1 °C 41% 45% ONO 75 ° 0 km/h 4 km/h 0.0 mm 1020.50 hPa langsam steigend
20:55 27.1 °C 21.2 °C 42% 62% SO 135 ° 0 km/h 4 km/h 0.0 mm 1020.80 hPa langsam steigend

 

Verlauf: letzte 24h
WIND   Windrose
(Klicke ins Bild, um den Hintergrund abzuschalten)
WIND   Windverkauf 2.5h
TEMP   Temperatur 2.5h
Druck   Luftdruck 2.5h
Regen   Luftdruck 2.5h